Time;durP1;ratioP1;P1;durP2;ratioP2;P2;SDS_P1;SDS_P2;PMS_P1;PMS_P2;Temp;Humidity;BMP_temperature;BMP_pressure;BME280_temperature;BME280_humidity;BME280_pressure;Samples;Min_cycle;Max_cycle;Signal;HPM_P1;HPM_P2
2022/07/30 00:01:47;;;;;;;;;;;20.00;93.80;;;;;;4947205;29;19968;-84
2022/07/30 00:04:13;;;;;;;;;;;19.90;93.70;;;;;;4947286;29;19915;-85
2022/07/30 00:06:39;;;;;;;;;;;19.80;94.30;;;;;;4947356;29;19910;-85
2022/07/30 00:09:04;;;;;;;;;;;19.80;94.70;;;;;;4947444;29;20372;-84
2022/07/30 00:11:30;;;;;;;;;;;19.70;95.00;;;;;;4947074;29;20012;-84
2022/07/30 00:13:55;;;;;;;;;;;19.70;95.20;;;;;;4947068;29;19921;-84
2022/07/30 00:16:21;;;;;;;;;;;19.70;95.50;;;;;;4946221;29;19918;-84
2022/07/30 00:18:46;;;;;;;;;;;19.60;96.00;;;;;;4947149;29;19974;-84
2022/07/30 00:21:12;;;;;;;;;;;19.60;96.20;;;;;;4946904;29;19910;-82
2022/07/30 00:23:37;;;;;;;;;;;19.50;96.60;;;;;;4947162;29;20329;-83
2022/07/30 00:26:03;;;;;;;;;;;19.50;97.00;;;;;;4947108;29;20382;-84
2022/07/30 00:28:28;;;;;;;;;;;19.50;96.70;;;;;;4946643;29;19965;-85
2022/07/30 00:30:54;;;;;;;;;;;19.50;96.80;;;;;;4946799;29;19918;-82
2022/07/30 00:33:19;;;;;;;;;;;19.50;97.00;;;;;;4946956;29;20438;-82
2022/07/30 00:35:45;;;;;;;;;;;19.40;97.40;;;;;;4947628;29;19965;-82
2022/07/30 00:38:10;;;;;;;;;;;19.40;97.80;;;;;;4946765;29;19914;-84
2022/07/30 00:40:36;;;;;;;;;;;19.40;97.60;;;;;;4947019;28;19917;-84
2022/07/30 00:43:01;;;;;;;;;;;19.30;97.90;;;;;;4951015;29;19916;-83
2022/07/30 00:45:27;;;;;;;;;;;19.30;98.20;;;;;;4950673;29;19910;-84
2022/07/30 00:47:53;;;;;;;;;;;19.30;98.40;;;;;;4950894;29;19995;-84
2022/07/30 00:50:19;;;;;;;;;;;19.40;98.70;;;;;;4933430;29;19910;-82
2022/07/30 00:52:45;;;;;;;;;;;19.40;98.90;;;;;;4951031;29;19910;-83
2022/07/30 00:55:12;;;;;;;;;;;19.40;99.20;;;;;;4950479;29;19921;-82
2022/07/30 00:57:37;;;;;;;;;;;19.30;99.30;;;;;;4950025;29;19914;-82
2022/07/30 01:00:05;;;;;;;;;;;19.30;99.90;;;;;;4954817;28;20371;-83
2022/07/30 01:02:31;;;;;;;;;;;19.30;99.90;;;;;;4950358;29;19918;-83
2022/07/30 01:04:56;;;;;;;;;;;19.20;99.90;;;;;;4933120;29;20421;-83
2022/07/30 01:07:22;;;;;;;;;;;19.30;99.90;;;;;;4950468;29;20453;-83
2022/07/30 01:09:48;;;;;;;;;;;19.30;99.90;;;;;;4950367;29;19910;-83
2022/07/30 01:12:15;;;;;;;;;;;19.30;99.90;;;;;;4950389;29;19914;-82
2022/07/30 01:14:41;;;;;;;;;;;19.30;99.90;;;;;;4949966;29;20408;-82
2022/07/30 01:17:07;;;;;;;;;;;19.30;99.90;;;;;;4949725;29;20059;-82
2022/07/30 01:19:52;;;;;;;;;;;19.40;99.90;;;;;;4950130;29;19988;-83
2022/07/30 01:22:23;;;;;;;;;;;19.40;99.90;;;;;;4949708;29;19914;-82
2022/07/30 01:24:54;;;;;;;;;;;19.40;99.90;;;;;;4949970;29;19910;-84
2022/07/30 01:27:20;;;;;;;;;;;19.40;99.90;;;;;;4949776;29;19917;-84
2022/07/30 01:29:48;;;;;;;;;;;19.50;99.90;;;;;;4950362;29;19965;-84
2022/07/30 01:32:15;;;;;;;;;;;19.50;99.90;;;;;;4950158;29;19914;-85
2022/07/30 01:34:41;;;;;;;;;;;19.50;99.90;;;;;;4932973;29;20342;-85
2022/07/30 01:37:07;;;;;;;;;;;19.50;99.90;;;;;;4950029;29;19918;-85
2022/07/30 01:39:34;;;;;;;;;;;19.50;99.90;;;;;;4950341;29;19953;-84
2022/07/30 01:42:04;;;;;;;;;;;19.50;99.90;;;;;;4950026;29;19932;-84
2022/07/30 01:44:30;;;;;;;;;;;19.60;99.90;;;;;;4950080;29;19906;-84
2022/07/30 01:46:56;;;;;;;;;;;19.50;99.90;;;;;;4950269;29;19933;-84
2022/07/30 01:49:23;;;;;;;;;;;19.50;99.90;;;;;;4949879;29;19911;-80
2022/07/30 01:51:49;;;;;;;;;;;19.60;99.90;;;;;;4947778;28;19910;-80
2022/07/30 01:54:16;;;;;;;;;;;19.70;99.90;;;;;;4949850;29;20193;-80
2022/07/30 01:56:43;;;;;;;;;;;19.50;99.90;;;;;;4949457;29;20020;-81
2022/07/30 01:59:09;;;;;;;;;;;19.50;99.90;;;;;;4949793;28;20000;-82
2022/07/30 02:01:34;;;;;;;;;;;19.60;99.90;;;;;;4949557;29;20673;-81
2022/07/30 02:04:01;;;;;;;;;;;19.60;99.90;;;;;;4949389;29;19969;-84
2022/07/30 02:06:32;;;;;;;;;;;19.60;99.90;;;;;;4949317;29;19969;-83
2022/07/30 02:09:00;;;;;;;;;;;19.50;99.90;;;;;;4949476;29;19910;-83
2022/07/30 02:14:20;;;;;;;;;;;19.60;99.90;;;;;;4937867;29;19912;-83
2022/07/30 02:16:49;;;;;;;;;;;19.50;99.90;;;;;;4948993;29;20409;-84
2022/07/30 02:19:15;;;;;;;;;;;19.50;99.90;;;;;;4932187;29;19916;-81
2022/07/30 02:21:51;;;;;;;;;;;19.60;99.90;;;;;;4949022;29;19910;-80
2022/07/30 02:24:22;;;;;;;;;;;19.60;99.90;;;;;;4936982;29;20283;-81
2022/07/30 02:26:50;;;;;;;;;;;19.60;99.90;;;;;;4948574;29;19910;-81
2022/07/30 02:29:17;;;;;;;;;;;19.50;99.90;;;;;;4948733;29;20009;-85
2022/07/30 02:31:44;;;;;;;;;;;19.60;99.90;;;;;;4949118;29;19910;-84
2022/07/30 02:34:10;;;;;;;;;;;19.60;99.90;;;;;;4948808;29;19957;-85
2022/07/30 02:36:36;;;;;;;;;;;19.60;99.90;;;;;;4948893;29;19918;-86
2022/07/30 02:39:03;;;;;;;;;;;19.50;99.90;;;;;;4948957;29;19911;-87
2022/07/30 02:41:29;;;;;;;;;;;19.60;99.90;;;;;;4948454;29;19946;-87
2022/07/30 02:43:55;;;;;;;;;;;19.60;99.90;;;;;;4932730;29;19915;-87
2022/07/30 02:46:22;;;;;;;;;;;19.50;99.90;;;;;;4949972;29;20298;-87
2022/07/30 02:48:48;;;;;;;;;;;19.60;99.90;;;;;;4949616;29;19910;-87
2022/07/30 02:51:15;;;;;;;;;;;19.50;99.90;;;;;;4948600;29;19957;-87
2022/07/30 02:53:42;;;;;;;;;;;19.50;99.90;;;;;;4948983;29;19929;-81
2022/07/30 02:56:08;;;;;;;;;;;19.40;99.90;;;;;;4945218;29;20427;-82
2022/07/30 02:58:34;;;;;;;;;;;19.30;99.90;;;;;;4948577;29;20018;-82
2022/07/30 03:01:01;;;;;;;;;;;19.30;99.90;;;;;;4952359;28;20537;-83
2022/07/30 03:03:28;;;;;;;;;;;19.30;99.90;;;;;;4947822;28;19910;-82
2022/07/30 03:05:54;;;;;;;;;;;19.30;99.90;;;;;;4947940;29;19922;-82
2022/07/30 03:08:20;;;;;;;;;;;19.30;99.90;;;;;;4948001;29;19915;-81
2022/07/30 03:10:47;;;;;;;;;;;19.20;99.90;;;;;;4948295;29;19910;-84
2022/07/30 03:13:13;;;;;;;;;;;19.20;99.90;;;;;;4948317;29;20473;-84
2022/07/30 03:15:43;;;;;;;;;;;19.30;99.90;;;;;;4948172;29;19954;-85
2022/07/30 03:18:13;;;;;;;;;;;19.30;99.90;;;;;;4942493;29;20025;-85
2022/07/30 03:20:39;;;;;;;;;;;19.20;99.90;;;;;;4948173;28;19921;-84
2022/07/30 03:23:05;;;;;;;;;;;19.20;99.90;;;;;;4947947;28;19907;-80
2022/07/30 03:25:31;;;;;;;;;;;19.10;99.90;;;;;;4948049;28;20657;-81
2022/07/30 03:27:59;;;;;;;;;;;19.10;99.90;;;;;;4946355;29;19917;-81
2022/07/30 03:30:25;;;;;;;;;;;19.00;99.90;;;;;;4947704;28;19912;-82
2022/07/30 03:32:52;;;;;;;;;;;19.00;99.90;;;;;;4948025;28;19910;-82
2022/07/30 03:35:20;;;;;;;;;;;18.90;99.90;;;;;;4947519;28;20598;-81
2022/07/30 03:37:46;;;;;;;;;;;18.90;99.90;;;;;;4947614;28;20373;-80
2022/07/30 03:40:12;;;;;;;;;;;18.70;99.90;;;;;;4947055;28;19918;-80
2022/07/30 03:42:38;;;;;;;;;;;18.70;99.90;;;;;;4947648;28;19914;-82
2022/07/30 03:45:05;;;;;;;;;;;18.60;99.90;;;;;;4947345;28;20497;-82
2022/07/30 03:47:31;;;;;;;;;;;18.60;99.90;;;;;;4947096;28;20177;-82
2022/07/30 03:49:57;;;;;;;;;;;18.50;99.90;;;;;;4947379;28;19954;-82
2022/07/30 03:52:23;;;;;;;;;;;18.50;99.90;;;;;;4947374;28;19980;-86
2022/07/30 03:54:49;;;;;;;;;;;18.40;99.90;;;;;;4947727;29;19934;-87
2022/07/30 03:57:15;;;;;;;;;;;18.40;99.90;;;;;;4948106;28;19944;-86
2022/07/30 03:59:40;;;;;;;;;;;18.30;99.90;;;;;;4949511;28;19910;-86
2022/07/30 04:02:06;;;;;;;;;;;18.30;99.90;;;;;;4950277;29;19935;-87
2022/07/30 04:04:32;;;;;;;;;;;18.20;99.90;;;;;;4950972;29;20300;-87
2022/07/30 04:06:57;;;;;;;;;;;18.20;99.90;;;;;;4950772;28;19917;-85
2022/07/30 04:09:23;;;;;;;;;;;18.20;99.90;;;;;;4948103;28;19914;-85
2022/07/30 04:11:49;;;;;;;;;;;18.10;99.90;;;;;;4947319;28;19970;-82
2022/07/30 04:14:14;;;;;;;;;;;18.20;99.90;;;;;;4948095;29;19913;-87
2022/07/30 04:16:49;;;;;;;;;;;18.30;99.90;;;;;;4945693;28;19918;-87
2022/07/30 04:19:17;;;;;;;;;;;18.40;99.90;;;;;;4951319;29;19996;-86
2022/07/30 04:21:43;;;;;;;;;;;18.30;99.90;;;;;;4932137;29;19911;-89
2022/07/30 04:24:10;;;;;;;;;;;18.30;99.90;;;;;;4949894;29;19914;-89
2022/07/30 04:26:36;;;;;;;;;;;18.30;99.90;;;;;;4947692;29;20286;-87
2022/07/30 04:29:03;;;;;;;;;;;18.40;99.90;;;;;;4943618;29;19918;-89
2022/07/30 04:31:34;;;;;;;;;;;18.40;99.90;;;;;;4943372;29;19910;-89
2022/07/30 04:34:00;;;;;;;;;;;18.30;99.90;;;;;;4947743;29;19911;-85
2022/07/30 04:36:25;;;;;;;;;;;18.30;99.90;;;;;;4947298;29;19997;-86
2022/07/30 04:38:51;;;;;;;;;;;18.10;99.90;;;;;;4930126;29;20402;-85
2022/07/30 04:41:16;;;;;;;;;;;18.10;99.90;;;;;;4946668;29;19998;-85
2022/07/30 04:43:42;;;;;;;;;;;18.10;99.90;;;;;;4946947;29;19914;-86
2022/07/30 04:46:07;;;;;;;;;;;18.10;99.90;;;;;;4945361;29;19946;-86
2022/07/30 04:48:33;;;;;;;;;;;18.00;99.90;;;;;;4946820;29;20413;-87
2022/07/30 04:51:01;;;;;;;;;;;18.20;99.90;;;;;;4929947;29;20371;-86
2022/07/30 04:53:27;;;;;;;;;;;18.20;99.90;;;;;;4946502;29;19949;-82
2022/07/30 04:55:54;;;;;;;;;;;18.20;99.90;;;;;;4946947;29;19968;-82
2022/07/30 04:58:20;;;;;;;;;;;18.20;99.90;;;;;;4946571;29;20009;-81
2022/07/30 05:00:47;;;;;;;;;;;18.10;99.90;;;;;;4947533;28;19910;-82
2022/07/30 05:03:13;;;;;;;;;;;18.20;99.90;;;;;;4945628;29;20305;-84
2022/07/30 05:05:39;;;;;;;;;;;18.20;99.90;;;;;;4946718;29;19910;-84
2022/07/30 05:08:05;;;;;;;;;;;18.20;99.90;;;;;;4946887;29;20000;-84
2022/07/30 05:10:31;;;;;;;;;;;18.40;99.90;;;;;;4945364;29;20363;-84
2022/07/30 05:12:56;;;;;;;;;;;19.20;99.90;;;;;;4946135;29;19920;-85
2022/07/30 05:15:22;;;;;;;;;;;20.00;99.90;;;;;;4947508;29;19933;-86
2022/07/30 05:17:48;;;;;;;;;;;20.70;99.90;;;;;;4948217;29;20409;-89
2022/07/30 05:20:13;;;;;;;;;;;21.00;99.90;;;;;;4951337;29;19915;-91
2022/07/30 05:22:39;;;;;;;;;;;21.40;99.90;;;;;;4947970;29;20433;-85
2022/07/30 05:25:05;;;;;;;;;;;21.60;99.90;;;;;;4945114;29;19914;-87
2022/07/30 05:27:30;;;;;;;;;;;21.90;99.90;;;;;;4948072;28;19914;-85
2022/07/30 05:29:56;;;;;;;;;;;22.00;99.60;;;;;;4935196;29;19933;-86
2022/07/30 05:32:21;;;;;;;;;;;22.00;98.80;;;;;;4949496;29;20013;-86
2022/07/30 05:34:47;;;;;;;;;;;22.40;97.90;;;;;;4949473;29;19926;-86
2022/07/30 05:37:12;;;;;;;;;;;22.70;96.60;;;;;;4950750;29;19933;-89
2022/07/30 05:39:38;;;;;;;;;;;22.90;96.00;;;;;;4949415;29;19945;-80
2022/07/30 05:42:03;;;;;;;;;;;23.60;93.70;;;;;;4949923;29;19913;-79
2022/07/30 05:44:29;;;;;;;;;;;23.80;92.30;;;;;;4950027;29;19911;-79
2022/07/30 05:46:55;;;;;;;;;;;24.20;91.90;;;;;;4950285;29;20026;-80
2022/07/30 05:49:20;;;;;;;;;;;24.80;89.80;;;;;;4949428;29;20449;-82
2022/07/30 05:51:46;;;;;;;;;;;24.90;86.30;;;;;;4932636;29;19911;-84
2022/07/30 05:54:11;;;;;;;;;;;25.10;85.00;;;;;;4949019;29;19914;-83
2022/07/30 05:56:39;;;;;;;;;;;25.40;83.90;;;;;;4949752;29;19918;-84
2022/07/30 05:59:05;;;;;;;;;;;25.50;82.80;;;;;;4933157;28;19906;-85
2022/07/30 06:01:30;;;;;;;;;;;25.80;81.90;;;;;;4933763;29;19915;-84
2022/07/30 06:03:56;;;;;;;;;;;25.80;81.10;;;;;;4950013;29;20593;-86
2022/07/30 06:06:21;;;;;;;;;;;25.60;80.30;;;;;;4931848;28;20378;-89
2022/07/30 06:08:48;;;;;;;;;;;26.00;79.60;;;;;;4947409;29;19915;-82
2022/07/30 06:11:14;;;;;;;;;;;26.60;78.30;;;;;;4949036;29;19918;-84
2022/07/30 06:13:40;;;;;;;;;;;26.70;76.50;;;;;;4949712;29;20118;-86
2022/07/30 06:16:05;;;;;;;;;;;26.90;75.00;;;;;;4931921;29;19918;-87
2022/07/30 06:18:31;;;;;;;;;;;26.90;74.40;;;;;;4948853;29;19922;-86
2022/07/30 06:20:57;;;;;;;;;;;26.60;74.10;;;;;;4949688;29;19910;-88
2022/07/30 06:23:22;;;;;;;;;;;27.00;73.00;;;;;;4949320;29;19913;-83
2022/07/30 06:25:48;;;;;;;;;;;27.60;72.60;;;;;;4949292;29;19918;-82
2022/07/30 06:28:14;;;;;;;;;;;27.90;70.60;;;;;;4948818;29;19915;-86
2022/07/30 06:30:40;;;;;;;;;;;27.90;69.50;;;;;;4931775;29;19910;-86
2022/07/30 06:33:06;;;;;;;;;;;28.50;68.40;;;;;;4948022;29;20543;-84
2022/07/30 06:35:33;;;;;;;;;;;28.90;66.70;;;;;;4948470;29;19910;-82
2022/07/30 06:37:58;;;;;;;;;;;28.50;67.20;;;;;;4931228;28;19968;-86
2022/07/30 06:40:24;;;;;;;;;;;29.00;65.90;;;;;;4947541;29;20005;-85
2022/07/30 06:42:50;;;;;;;;;;;29.40;65.10;;;;;;4948436;29;19918;-85
2022/07/30 06:45:15;;;;;;;;;;;28.80;65.30;;;;;;4948217;29;19937;-84
2022/07/30 06:47:41;;;;;;;;;;;29.30;64.60;;;;;;4948384;29;19911;-83
2022/07/30 06:50:07;;;;;;;;;;;29.80;63.70;;;;;;4931028;29;19918;-85
2022/07/30 06:52:32;;;;;;;;;;;30.60;63.50;;;;;;4948640;29;19907;-86
2022/07/30 06:54:58;;;;;;;;;;;30.20;62.90;;;;;;4948443;29;20021;-83
2022/07/30 06:57:23;;;;;;;;;;;30.40;61.90;;;;;;4947378;29;19957;-83
2022/07/30 06:59:49;;;;;;;;;;;30.70;61.50;;;;;;4953261;28;20318;-82
2022/07/30 07:02:15;;;;;;;;;;;30.80;60.50;;;;;;4947393;29;20481;-85
2022/07/30 07:04:40;;;;;;;;;;;31.00;60.80;;;;;;4948135;29;19914;-83
2022/07/30 07:07:06;;;;;;;;;;;31.60;60.10;;;;;;4948148;29;19915;-83
2022/07/30 07:09:31;;;;;;;;;;;31.30;59.60;;;;;;4948242;29;19910;-83
2022/07/30 07:11:57;;;;;;;;;;;32.20;58.70;;;;;;4930931;29;19910;-89
2022/07/30 07:14:23;;;;;;;;;;;31.80;59.10;;;;;;4946860;29;20286;-86
2022/07/30 07:16:48;;;;;;;;;;;31.80;58.60;;;;;;4946267;29;19969;-86
2022/07/30 07:19:15;;;;;;;;;;;32.60;57.40;;;;;;4947533;29;19950;-86
2022/07/30 07:21:40;;;;;;;;;;;32.60;57.00;;;;;;4946510;29;19914;-86
2022/07/30 07:24:06;;;;;;;;;;;32.60;57.50;;;;;;4936441;28;19925;-86
2022/07/30 07:26:32;;;;;;;;;;;33.20;55.90;;;;;;4948098;29;19918;-86
2022/07/30 07:28:57;;;;;;;;;;;32.90;56.20;;;;;;4948107;29;20244;-88
2022/07/30 07:31:23;;;;;;;;;;;33.30;55.40;;;;;;4946085;29;20452;-85
2022/07/30 07:33:49;;;;;;;;;;;33.90;55.90;;;;;;4949099;29;20005;-86
2022/07/30 07:36:14;;;;;;;;;;;34.20;55.00;;;;;;4944353;28;19972;-82
2022/07/30 07:38:40;;;;;;;;;;;34.90;54.20;;;;;;4929327;29;19922;-82
2022/07/30 07:41:05;;;;;;;;;;;35.20;52.80;;;;;;4948547;29;19929;-82
2022/07/30 07:43:31;;;;;;;;;;;35.40;53.10;;;;;;4946559;29;19926;-83
2022/07/30 07:45:57;;;;;;;;;;;35.30;52.60;;;;;;4948187;28;19914;-81
2022/07/30 07:48:22;;;;;;;;;;;35.20;51.60;;;;;;4947810;29;19957;-82
2022/07/30 07:50:48;;;;;;;;;;;35.30;51.70;;;;;;4946525;28;20622;-82
2022/07/30 07:53:14;;;;;;;;;;;36.30;50.80;;;;;;4947458;29;19910;-81
2022/07/30 07:55:39;;;;;;;;;;;36.50;50.80;;;;;;4947080;29;19921;-83
2022/07/30 07:58:05;;;;;;;;;;;36.60;50.40;;;;;;4947288;29;19954;-82
2022/07/30 08:00:30;;;;;;;;;;;36.10;49.50;;;;;;4947170;28;19918;-81
2022/07/30 08:02:56;;;;;;;;;;;34.80;50.70;;;;;;4947053;29;20374;-82
2022/07/30 08:05:22;;;;;;;;;;;35.40;50.00;;;;;;4946059;29;20275;-82
2022/07/30 08:07:47;;;;;;;;;;;35.30;50.10;;;;;;4947695;29;19916;-83
2022/07/30 08:10:14;;;;;;;;;;;35.40;50.20;;;;;;4945296;29;20255;-82
2022/07/30 08:12:40;;;;;;;;;;;36.00;49.70;;;;;;4947416;29;20366;-83
2022/07/30 08:15:06;;;;;;;;;;;36.60;48.80;;;;;;4947242;29;19917;-83
2022/07/30 08:17:32;;;;;;;;;;;37.30;49.30;;;;;;4896818;29;19922;-82
2022/07/30 08:20:01;;;;;;;;;;;37.20;47.70;;;;;;4889012;29;19910;-82
2022/07/30 08:22:27;;;;;;;;;;;37.10;47.80;;;;;;4898436;29;19914;-82
2022/07/30 08:24:52;;;;;;;;;;;36.50;48.40;;;;;;4907716;28;19921;-83
2022/07/30 08:27:18;;;;;;;;;;;37.40;47.70;;;;;;4889289;29;20302;-82
2022/07/30 08:29:43;;;;;;;;;;;37.80;47.60;;;;;;4962638;23;19962;-93
2022/07/30 08:32:09;;;;;;;;;;;37.10;47.20;;;;;;4923969;28;19929;-95
2022/07/30 08:34:35;;;;;;;;;;;37.60;46.70;;;;;;4930953;28;19917;-93
2022/07/30 08:37:00;;;;;;;;;;;38.60;46.20;;;;;;4964835;28;19926;-94
2022/07/30 08:39:26;;;;;;;;;;;37.70;46.30;;;;;;4968684;28;20294;-93
2022/07/30 08:41:51;;;;;;;;;;;37.80;46.40;;;;;;4987154;28;20003;-94
2022/07/30 08:44:17;;;;;;;;;;;38.60;46.10;;;;;;4989549;28;19905;-94
2022/07/30 08:46:44;;;;;;;;;;;37.80;46.20;;;;;;4972459;28;19902;-93
2022/07/30 08:49:10;;;;;;;;;;;38.30;45.30;;;;;;4988198;28;19921;-93
2022/07/30 08:51:37;;;;;;;;;;;39.40;45.70;;;;;;4985984;28;19910;-94
2022/07/30 08:54:03;;;;;;;;;;;39.50;45.80;;;;;;4984895;28;19910;-94
2022/07/30 08:56:29;;;;;;;;;;;39.70;46.30;;;;;;4988532;28;19910;-94
2022/07/30 08:58:54;;;;;;;;;;;40.60;46.50;;;;;;4986846;28;20390;-93
2022/07/30 09:01:20;;;;;;;;;;;40.40;45.10;;;;;;4980700;28;20291;-94
2022/07/30 09:03:46;;;;;;;;;;;40.60;44.70;;;;;;4992797;28;19968;-94
2022/07/30 09:06:12;;;;;;;;;;;39.80;45.00;;;;;;4974318;28;20876;-93
2022/07/30 09:08:37;;;;;;;;;;;39.00;45.10;;;;;;4990503;28;20422;-93
2022/07/30 09:11:03;;;;;;;;;;;40.50;44.00;;;;;;4987312;28;20000;-92
2022/07/30 09:13:29;;;;;;;;;;;39.90;44.00;;;;;;4991397;28;19920;-94
2022/07/30 09:15:55;;;;;;;;;;;37.10;43.90;;;;;;4971883;28;20211;-92
2022/07/30 09:18:31;;;;;;;;;;;33.40;49.80;;;;;;4989613;28;20422;-94
2022/07/30 09:20:58;;;;;;;;;;;35.90;47.90;;;;;;4990855;28;19909;-93
2022/07/30 09:23:23;;;;;;;;;;;39.40;44.70;;;;;;4971826;28;19920;-93
2022/07/30 09:25:50;;;;;;;;;;;40.70;43.60;;;;;;4974501;28;19985;-94
2022/07/30 09:28:15;;;;;;;;;;;40.20;43.70;;;;;;4975365;28;19914;-93
2022/07/30 09:30:45;;;;;;;;;;;40.00;43.90;;;;;;4991727;28;20020;-94
2022/07/30 09:33:11;;;;;;;;;;;39.40;44.50;;;;;;4988786;28;19913;-93
2022/07/30 09:35:37;;;;;;;;;;;39.70;44.00;;;;;;4992492;28;19964;-94
2022/07/30 09:38:03;;;;;;;;;;;40.10;44.20;;;;;;4973397;28;19917;-94
2022/07/30 09:40:29;;;;;;;;;;;41.20;43.40;;;;;;4989442;28;20382;-93
2022/07/30 09:43:02;;;;;;;;;;;40.20;41.80;;;;;;4970592;28;19988;-94
2022/07/30 09:45:27;;;;;;;;;;;40.90;42.30;;;;;;4991741;28;19916;-93
2022/07/30 09:47:53;;;;;;;;;;;40.70;42.60;;;;;;4973351;28;19909;-94
2022/07/30 09:50:19;;;;;;;;;;;41.30;41.60;;;;;;4990867;28;19914;-93
2022/07/30 09:52:45;;;;;;;;;;;40.30;41.70;;;;;;4991879;28;19957;-93
2022/07/30 09:55:11;;;;;;;;;;;41.10;43.10;;;;;;4992078;28;19918;-94
2022/07/30 09:57:56;;;;;;;;;;;40.50;42.40;;;;;;4990437;28;19914;-92
2022/07/30 10:00:23;;;;;;;;;;;40.70;42.30;;;;;;4987723;28;19913;-91
2022/07/30 10:02:50;;;;;;;;;;;41.20;42.40;;;;;;4987182;28;19918;-94
2022/07/30 10:05:18;;;;;;;;;;;42.00;41.30;;;;;;4986292;28;19918;-94
2022/07/30 10:07:59;;;;;;;;;;;42.10;41.40;;;;;;4966683;28;19925;-92
2022/07/30 10:10:26;;;;;;;;;;;41.80;41.90;;;;;;4992685;28;19913;-96
2022/07/30 10:12:59;;;;;;;;;;;39.40;40.30;;;;;;4989235;28;19932;-91
2022/07/30 10:15:29;;;;;;;;;;;40.20;41.60;;;;;;4969684;28;19913;-92
2022/07/30 10:17:55;;;;;;;;;;;40.40;41.20;;;;;;4967770;28;19909;-92
2022/07/30 10:20:21;;;;;;;;;;;38.10;42.20;;;;;;4969716;28;19913;-94
2022/07/30 10:22:47;;;;;;;;;;;37.90;44.10;;;;;;4987516;28;20334;-92
2022/07/30 10:25:16;;;;;;;;;;;40.40;42.30;;;;;;4971288;28;20330;-93
2022/07/30 10:27:41;;;;;;;;;;;39.30;41.70;;;;;;4985566;28;20089;-91
2022/07/30 10:30:07;;;;;;;;;;;39.70;41.70;;;;;;4972655;28;19914;-91
2022/07/30 10:32:33;;;;;;;;;;;38.60;41.30;;;;;;4986174;28;19964;-92
2022/07/30 10:34:59;;;;;;;;;;;37.40;41.80;;;;;;4988699;28;19949;-92
2022/07/30 10:37:26;;;;;;;;;;;35.80;43.10;;;;;;4997232;28;19984;-90
2022/07/30 10:39:53;;;;;;;;;;;35.00;43.80;;;;;;4983160;28;19945;-94
2022/07/30 10:42:27;;;;;;;;;;;35.00;46.10;;;;;;4983149;28;20361;-90
2022/07/30 10:45:11;;;;;;;;;;;34.60;46.30;;;;;;4995866;28;19918;-92
2022/07/30 10:47:38;;;;;;;;;;;34.00;46.50;;;;;;4981000;28;19921;-93
2022/07/30 10:50:03;;;;;;;;;;;33.70;48.30;;;;;;4989930;28;19964;-92
2022/07/30 10:52:42;;;;;;;;;;;34.10;47.30;;;;;;4985545;28;19913;-91
2022/07/30 10:55:11;;;;;;;;;;;33.70;47.40;;;;;;4984723;28;19914;-92
2022/07/30 10:57:55;;;;;;;;;;;33.40;46.80;;;;;;4985523;28;20374;-91
2022/07/30 11:00:21;;;;;;;;;;;32.30;47.80;;;;;;4983225;28;19914;-93
2022/07/30 11:03:17;;;;;;;;;;;32.30;49.10;;;;;;4991220;28;20660;-95
2022/07/30 11:05:44;;;;;;;;;;;32.50;49.20;;;;;;4985316;28;19965;-94
2022/07/30 11:08:28;;;;;;;;;;;32.60;49.10;;;;;;4983290;28;19934;-96
2022/07/30 11:11:04;;;;;;;;;;;33.00;47.90;;;;;;4983723;28;19964;-95
2022/07/30 11:13:50;;;;;;;;;;;32.80;48.40;;;;;;4987658;28;20725;-95
2022/07/30 11:16:18;;;;;;;;;;;33.50;48.40;;;;;;4989196;28;19922;-93
2022/07/30 11:19:03;;;;;;;;;;;33.30;49.00;;;;;;4989961;28;19909;-95
2022/07/30 11:21:28;;;;;;;;;;;32.60;47.70;;;;;;4985695;28;19921;-94
2022/07/30 11:23:54;;;;;;;;;;;32.90;49.00;;;;;;4984882;28;19910;-94
2022/07/30 11:26:38;;;;;;;;;;;32.50;48.00;;;;;;4978765;28;19917;-94
2022/07/30 11:29:04;;;;;;;;;;;32.60;49.20;;;;;;4979776;28;20445;-94
2022/07/30 11:31:37;;;;;;;;;;;31.80;47.70;;;;;;4983541;28;20000;-93
2022/07/30 11:34:18;;;;;;;;;;;31.60;47.80;;;;;;4964558;28;19913;-93
2022/07/30 11:37:14;;;;;;;;;;;32.00;48.80;;;;;;4987205;28;19909;-96
2022/07/30 11:39:52;;;;;;;;;;;32.70;49.10;;;;;;4970470;28;19914;-95
2022/07/30 11:42:30;;;;;;;;;;;32.90;49.30;;;;;;4988810;28;19989;-94
2022/07/30 11:45:14;;;;;;;;;;;32.50;48.60;;;;;;4991446;28;19940;-92
2022/07/30 11:47:42;;;;;;;;;;;31.90;51.20;;;;;;4985917;28;19980;-88
2022/07/30 11:50:15;;;;;;;;;;;32.50;50.10;;;;;;4966626;28;19933;-91
2022/07/30 11:52:41;;;;;;;;;;;32.60;50.70;;;;;;4968054;28;19913;-95
2022/07/30 11:55:07;;;;;;;;;;;32.00;49.90;;;;;;4985465;28;19914;-92
2022/07/30 11:57:39;;;;;;;;;;;31.80;50.50;;;;;;4984382;28;19918;-92
2022/07/30 12:00:05;;;;;;;;;;;31.40;50.50;;;;;;4985962;28;20435;-93
2022/07/30 12:02:30;;;;;;;;;;;31.10;49.90;;;;;;4987651;28;20048;-92
2022/07/30 12:04:56;;;;;;;;;;;30.90;50.80;;;;;;4983642;28;20004;-93
2022/07/30 12:07:24;;;;;;;;;;;30.70;51.30;;;;;;4963176;28;19925;-94
2022/07/30 12:09:50;;;;;;;;;;;31.00;49.60;;;;;;4981941;28;19971;-92
2022/07/30 12:12:22;;;;;;;;;;;31.00;49.70;;;;;;4967706;28;19913;-93
2022/07/30 12:14:47;;;;;;;;;;;30.90;50.70;;;;;;4987532;28;20458;-92
2022/07/30 12:17:13;;;;;;;;;;;31.40;52.10;;;;;;4981814;28;20633;-92
2022/07/30 12:19:42;;;;;;;;;;;31.30;49.90;;;;;;4988813;28;19957;-93
2022/07/30 12:22:08;;;;;;;;;;;30.80;50.20;;;;;;4985044;28;19991;-91
2022/07/30 12:24:33;;;;;;;;;;;30.20;48.60;;;;;;4989836;28;19910;-92
2022/07/30 12:27:03;;;;;;;;;;;30.50;51.00;;;;;;4968926;28;19921;-91
2022/07/30 12:29:30;;;;;;;;;;;31.20;51.80;;;;;;4989640;28;19921;-93
2022/07/30 12:31:56;;;;;;;;;;;31.30;51.60;;;;;;4988530;28;19925;-93
2022/07/30 12:34:23;;;;;;;;;;;30.70;49.90;;;;;;4970946;28;20389;-93
2022/07/30 12:36:48;;;;;;;;;;;30.50;51.40;;;;;;4970056;28;20367;-93
2022/07/30 12:39:32;;;;;;;;;;;30.70;50.60;;;;;;4975503;28;19909;-93
2022/07/30 12:41:57;;;;;;;;;;;30.80;52.20;;;;;;4990208;28;19909;-92
2022/07/30 12:44:37;;;;;;;;;;;31.10;51.60;;;;;;4989022;28;19937;-92
2022/07/30 12:47:03;;;;;;;;;;;30.80;50.80;;;;;;4987980;28;19918;-93
2022/07/30 12:49:29;;;;;;;;;;;30.90;51.60;;;;;;4975876;28;19913;-92
2022/07/30 12:51:55;;;;;;;;;;;31.20;52.20;;;;;;4975984;28;19905;-91
2022/07/30 12:54:21;;;;;;;;;;;31.20;51.20;;;;;;4988024;28;20725;-92
2022/07/30 12:57:03;;;;;;;;;;;30.70;50.70;;;;;;4974679;28;19913;-92
2022/07/30 12:59:29;;;;;;;;;;;30.50;51.50;;;;;;4963730;28;19914;-93
2022/07/30 13:01:56;;;;;;;;;;;30.60;51.30;;;;;;4968317;28;19928;-92
2022/07/30 13:04:22;;;;;;;;;;;30.50;50.50;;;;;;4985551;28;19920;-89
2022/07/30 13:07:08;;;;;;;;;;;30.50;50.80;;;;;;4988551;28;19921;-91
2022/07/30 13:09:33;;;;;;;;;;;30.70;50.10;;;;;;4966048;28;19995;-90
2022/07/30 13:11:59;;;;;;;;;;;30.70;50.50;;;;;;4989288;28;20012;-90
2022/07/30 13:14:25;;;;;;;;;;;31.00;51.10;;;;;;4967383;28;19936;-91
2022/07/30 13:16:52;;;;;;;;;;;30.80;50.60;;;;;;4988462;28;19913;-90
2022/07/30 13:19:17;;;;;;;;;;;30.90;51.80;;;;;;4971228;28;19916;-90
2022/07/30 13:21:43;;;;;;;;;;;31.00;51.20;;;;;;4985373;28;20386;-92
2022/07/30 13:24:09;;;;;;;;;;;31.00;51.50;;;;;;4982860;28;19961;-90
2022/07/30 13:26:35;;;;;;;;;;;30.80;50.10;;;;;;4983140;28;20020;-91
2022/07/30 13:29:01;;;;;;;;;;;30.80;51.50;;;;;;4984899;28;20075;-91
2022/07/30 13:31:26;;;;;;;;;;;30.90;51.50;;;;;;4976963;28;19929;-90
2022/07/30 13:33:52;;;;;;;;;;;30.90;50.60;;;;;;4987019;28;19914;-91
2022/07/30 13:36:18;;;;;;;;;;;30.50;50.90;;;;;;4980495;28;19964;-87
2022/07/30 13:38:46;;;;;;;;;;;30.10;51.40;;;;;;4979557;28;19922;-86
2022/07/30 13:41:12;;;;;;;;;;;30.20;51.50;;;;;;4984431;28;19913;-87
2022/07/30 13:43:38;;;;;;;;;;;30.40;51.40;;;;;;4986372;28;19971;-87
2022/07/30 13:46:04;;;;;;;;;;;30.20;50.00;;;;;;4984600;28;19921;-87
2022/07/30 13:48:30;;;;;;;;;;;29.80;50.70;;;;;;4985685;28;20404;-86
2022/07/30 13:50:56;;;;;;;;;;;29.80;51.10;;;;;;4985710;28;19914;-87
2022/07/30 13:53:21;;;;;;;;;;;30.10;50.80;;;;;;4973700;28;20771;-87
2022/07/30 13:55:47;;;;;;;;;;;30.60;51.50;;;;;;4985301;28;20015;-89
2022/07/30 13:58:13;;;;;;;;;;;30.60;50.30;;;;;;4984057;28;19953;-88
2022/07/30 14:00:39;;;;;;;;;;;30.80;51.70;;;;;;4981720;28;19972;-87
2022/07/30 14:03:06;;;;;;;;;;;30.80;51.40;;;;;;4977956;28;20436;-87
2022/07/30 14:05:32;;;;;;;;;;;30.50;51.10;;;;;;4985976;28;20437;-87
2022/07/30 14:07:58;;;;;;;;;;;30.00;50.80;;;;;;4983726;28;20016;-87
2022/07/30 14:10:23;;;;;;;;;;;29.80;52.40;;;;;;4979895;28;19914;-86
2022/07/30 14:12:53;;;;;;;;;;;29.80;51.10;;;;;;4975474;28;19949;-87
2022/07/30 14:15:19;;;;;;;;;;;29.40;51.20;;;;;;4997072;28;20765;-87
2022/07/30 14:17:45;;;;;;;;;;;29.60;51.80;;;;;;4985948;28;19913;-87
2022/07/30 14:20:10;;;;;;;;;;;30.00;52.60;;;;;;4979527;28;20441;-87